sensor_id;sensor_type;location;lat;lon;timestamp;P1;durP1;ratioP1;P2;durP2;ratioP2
47659;SDS011;33403;43.608;1.458;2022-08-25T00:02:20;2.13;;;1.52;;
47659;SDS011;33403;43.608;1.458;2022-08-25T00:04:46;3.33;;;1.80;;
47659;SDS011;33403;43.608;1.458;2022-08-25T00:07:12;1.70;;;1.60;;
47659;SDS011;33403;43.608;1.458;2022-08-25T00:09:38;3.00;;;1.80;;
47659;SDS011;33403;43.608;1.458;2022-08-25T00:12:04;1.98;;;1.60;;
47659;SDS011;33403;43.608;1.458;2022-08-25T00:14:32;2.92;;;1.85;;
47659;SDS011;33403;43.608;1.458;2022-08-25T00:16:59;2.42;;;1.58;;
47659;SDS011;33403;43.608;1.458;2022-08-25T00:19:27;2.85;;;1.80;;
47659;SDS011;33403;43.608;1.458;2022-08-25T00:21:54;1.50;;;1.40;;
47659;SDS011;33403;43.608;1.458;2022-08-25T00:24:20;3.22;;;1.80;;
47659;SDS011;33403;43.608;1.458;2022-08-25T00:26:47;2.03;;;1.60;;
47659;SDS011;33403;43.608;1.458;2022-08-25T00:29:13;2.03;;;1.63;;
47659;SDS011;33403;43.608;1.458;2022-08-25T00:31:40;1.95;;;1.60;;
47659;SDS011;33403;43.608;1.458;2022-08-25T00:34:08;2.55;;;1.80;;
47659;SDS011;33403;43.608;1.458;2022-08-25T00:36:35;2.05;;;1.70;;
47659;SDS011;33403;43.608;1.458;2022-08-25T00:39:03;1.70;;;1.60;;
47659;SDS011;33403;43.608;1.458;2022-08-25T00:41:29;1.90;;;1.65;;
47659;SDS011;33403;43.608;1.458;2022-08-25T00:43:56;1.95;;;1.60;;
47659;SDS011;33403;43.608;1.458;2022-08-25T00:46:24;1.55;;;1.45;;
47659;SDS011;33403;43.608;1.458;2022-08-25T00:49:01;2.90;;;1.60;;
47659;SDS011;33403;43.608;1.458;2022-08-25T00:52:10;2.47;;;1.70;;
47659;SDS011;33403;43.608;1.458;2022-08-25T00:54:19;1.70;;;1.58;;
47659;SDS011;33403;43.608;1.458;2022-08-25T00:56:47;1.85;;;1.50;;
47659;SDS011;33403;43.608;1.458;2022-08-25T00:59:13;1.70;;;1.60;;
47659;SDS011;33403;43.608;1.458;2022-08-25T01:01:40;1.95;;;1.73;;
47659;SDS011;33403;43.608;1.458;2022-08-25T01:04:06;3.03;;;2.08;;
47659;SDS011;33403;43.608;1.458;2022-08-25T01:06:33;1.70;;;1.60;;
47659;SDS011;33403;43.608;1.458;2022-08-25T01:09:01;2.47;;;1.83;;
47659;SDS011;33403;43.608;1.458;2022-08-25T01:11:27;2.25;;;1.70;;
47659;SDS011;33403;43.608;1.458;2022-08-25T01:13:54;4.22;;;1.80;;
47659;SDS011;33403;43.608;1.458;2022-08-25T01:16:21;2.30;;;2.00;;
47659;SDS011;33403;43.608;1.458;2022-08-25T01:18:49;2.78;;;1.70;;
47659;SDS011;33403;43.608;1.458;2022-08-25T01:21:15;3.15;;;2.10;;
47659;SDS011;33403;43.608;1.458;2022-08-25T01:23:42;2.97;;;1.95;;
47659;SDS011;33403;43.608;1.458;2022-08-25T01:28:35;3.80;;;1.73;;
47659;SDS011;33403;43.608;1.458;2022-08-25T01:31:01;1.80;;;1.70;;
47659;SDS011;33403;43.608;1.458;2022-08-25T01:33:28;2.85;;;1.80;;
47659;SDS011;33403;43.608;1.458;2022-08-25T01:35:54;1.67;;;1.42;;
47659;SDS011;33403;43.608;1.458;2022-08-25T01:38:20;1.65;;;1.55;;
47659;SDS011;33403;43.608;1.458;2022-08-25T01:40:46;1.95;;;1.55;;
47659;SDS011;33403;43.608;1.458;2022-08-25T01:43:20;2.35;;;2.00;;
47659;SDS011;33403;43.608;1.458;2022-08-25T01:45:46;2.17;;;1.80;;
47659;SDS011;33403;43.608;1.458;2022-08-25T01:48:13;4.57;;;1.90;;
47659;SDS011;33403;43.608;1.458;2022-08-25T01:50:40;2.42;;;1.90;;
47659;SDS011;33403;43.608;1.458;2022-08-25T01:55:44;2.47;;;1.80;;
47659;SDS011;33403;43.608;1.458;2022-08-25T01:58:24;2.03;;;1.83;;
47659;SDS011;33403;43.608;1.458;2022-08-25T02:00:51;2.33;;;1.70;;
47659;SDS011;33403;43.608;1.458;2022-08-25T02:03:21;3.90;;;2.13;;
47659;SDS011;33403;43.608;1.458;2022-08-25T02:05:48;2.92;;;1.95;;
47659;SDS011;33403;43.608;1.458;2022-08-25T02:08:14;3.67;;;1.80;;
47659;SDS011;33403;43.608;1.458;2022-08-25T02:10:41;3.65;;;1.70;;
47659;SDS011;33403;43.608;1.458;2022-08-25T02:13:07;3.55;;;1.95;;
47659;SDS011;33403;43.608;1.458;2022-08-25T02:15:34;2.35;;;1.88;;
47659;SDS011;33403;43.608;1.458;2022-08-25T02:18:00;3.67;;;1.88;;
47659;SDS011;33403;43.608;1.458;2022-08-25T02:20:26;2.13;;;1.80;;
47659;SDS011;33403;43.608;1.458;2022-08-25T02:22:52;2.90;;;1.98;;
47659;SDS011;33403;43.608;1.458;2022-08-25T02:25:19;4.47;;;2.10;;
47659;SDS011;33403;43.608;1.458;2022-08-25T02:27:45;3.33;;;2.10;;
47659;SDS011;33403;43.608;1.458;2022-08-25T02:30:14;4.82;;;2.50;;
47659;SDS011;33403;43.608;1.458;2022-08-25T02:32:40;6.10;;;2.38;;
47659;SDS011;33403;43.608;1.458;2022-08-25T02:35:06;4.88;;;2.38;;
47659;SDS011;33403;43.608;1.458;2022-08-25T02:37:33;2.40;;;2.20;;
47659;SDS011;33403;43.608;1.458;2022-08-25T02:39:59;3.65;;;2.63;;
47659;SDS011;33403;43.608;1.458;2022-08-25T02:42:26;6.05;;;2.42;;
47659;SDS011;33403;43.608;1.458;2022-08-25T02:44:52;3.88;;;2.80;;
47659;SDS011;33403;43.608;1.458;2022-08-25T02:47:18;4.28;;;2.28;;
47659;SDS011;33403;43.608;1.458;2022-08-25T02:49:46;3.05;;;2.22;;
47659;SDS011;33403;43.608;1.458;2022-08-25T02:52:12;5.38;;;2.30;;
47659;SDS011;33403;43.608;1.458;2022-08-25T02:54:38;4.07;;;2.60;;
47659;SDS011;33403;43.608;1.458;2022-08-25T02:57:05;5.40;;;2.30;;
47659;SDS011;33403;43.608;1.458;2022-08-25T02:59:31;4.07;;;2.45;;
47659;SDS011;33403;43.608;1.458;2022-08-25T03:01:57;4.43;;;2.38;;
47659;SDS011;33403;43.608;1.458;2022-08-25T03:04:23;3.78;;;2.45;;
47659;SDS011;33403;43.608;1.458;2022-08-25T03:06:49;6.07;;;3.30;;
47659;SDS011;33403;43.608;1.458;2022-08-25T03:09:15;7.95;;;3.42;;
47659;SDS011;33403;43.608;1.458;2022-08-25T03:11:41;6.70;;;3.83;;
47659;SDS011;33403;43.608;1.458;2022-08-25T03:14:08;8.82;;;3.50;;
47659;SDS011;33403;43.608;1.458;2022-08-25T03:16:35;6.18;;;3.65;;
47659;SDS011;33403;43.608;1.458;2022-08-25T03:19:01;4.45;;;3.40;;
47659;SDS011;33403;43.608;1.458;2022-08-25T03:21:27;7.20;;;3.72;;
47659;SDS011;33403;43.608;1.458;2022-08-25T03:23:54;4.93;;;3.13;;
47659;SDS011;33403;43.608;1.458;2022-08-25T03:26:21;6.88;;;3.45;;
47659;SDS011;33403;43.608;1.458;2022-08-25T03:29:06;5.43;;;3.83;;
47659;SDS011;33403;43.608;1.458;2022-08-25T03:31:32;5.00;;;3.60;;
47659;SDS011;33403;43.608;1.458;2022-08-25T03:33:59;7.53;;;3.90;;
47659;SDS011;33403;43.608;1.458;2022-08-25T03:36:25;6.03;;;3.80;;
47659;SDS011;33403;43.608;1.458;2022-08-25T03:38:52;6.45;;;3.95;;
47659;SDS011;33403;43.608;1.458;2022-08-25T03:41:22;6.13;;;3.70;;
47659;SDS011;33403;43.608;1.458;2022-08-25T03:43:49;8.70;;;4.15;;
47659;SDS011;33403;43.608;1.458;2022-08-25T03:46:16;4.22;;;3.35;;
47659;SDS011;33403;43.608;1.458;2022-08-25T03:48:43;5.75;;;3.50;;
47659;SDS011;33403;43.608;1.458;2022-08-25T03:51:09;4.63;;;3.40;;
47659;SDS011;33403;43.608;1.458;2022-08-25T03:53:35;5.45;;;3.03;;
47659;SDS011;33403;43.608;1.458;2022-08-25T03:56:01;8.05;;;3.25;;
47659;SDS011;33403;43.608;1.458;2022-08-25T03:58:27;4.95;;;2.97;;
47659;SDS011;33403;43.608;1.458;2022-08-25T04:00:53;5.80;;;3.00;;
47659;SDS011;33403;43.608;1.458;2022-08-25T04:03:20;5.07;;;3.00;;
47659;SDS011;33403;43.608;1.458;2022-08-25T04:05:46;3.75;;;3.10;;
47659;SDS011;33403;43.608;1.458;2022-08-25T04:08:12;5.72;;;3.15;;
47659;SDS011;33403;43.608;1.458;2022-08-25T04:10:38;3.70;;;2.67;;
47659;SDS011;33403;43.608;1.458;2022-08-25T04:13:04;6.97;;;3.28;;
47659;SDS011;33403;43.608;1.458;2022-08-25T04:15:31;5.43;;;2.70;;
47659;SDS011;33403;43.608;1.458;2022-08-25T04:17:57;5.55;;;2.80;;
47659;SDS011;33403;43.608;1.458;2022-08-25T04:20:23;4.57;;;2.70;;
47659;SDS011;33403;43.608;1.458;2022-08-25T04:22:49;4.75;;;3.22;;
47659;SDS011;33403;43.608;1.458;2022-08-25T04:25:15;6.28;;;2.75;;
47659;SDS011;33403;43.608;1.458;2022-08-25T04:27:41;6.07;;;2.70;;
47659;SDS011;33403;43.608;1.458;2022-08-25T04:30:07;6.10;;;2.80;;
47659;SDS011;33403;43.608;1.458;2022-08-25T04:32:34;4.63;;;2.70;;
47659;SDS011;33403;43.608;1.458;2022-08-25T04:35:00;4.78;;;2.88;;
47659;SDS011;33403;43.608;1.458;2022-08-25T04:37:26;5.65;;;3.00;;
47659;SDS011;33403;43.608;1.458;2022-08-25T04:39:52;5.78;;;2.60;;
47659;SDS011;33403;43.608;1.458;2022-08-25T04:42:18;7.45;;;2.88;;
47659;SDS011;33403;43.608;1.458;2022-08-25T04:44:45;7.22;;;3.00;;
47659;SDS011;33403;43.608;1.458;2022-08-25T04:47:11;5.93;;;2.85;;
47659;SDS011;33403;43.608;1.458;2022-08-25T04:49:37;6.70;;;3.00;;
47659;SDS011;33403;43.608;1.458;2022-08-25T04:52:03;4.50;;;2.78;;
47659;SDS011;33403;43.608;1.458;2022-08-25T04:54:29;5.70;;;2.60;;
47659;SDS011;33403;43.608;1.458;2022-08-25T04:56:56;3.67;;;2.40;;
47659;SDS011;33403;43.608;1.458;2022-08-25T04:59:22;4.30;;;2.30;;
47659;SDS011;33403;43.608;1.458;2022-08-25T05:01:48;4.70;;;2.80;;
47659;SDS011;33403;43.608;1.458;2022-08-25T05:04:15;4.43;;;2.70;;
47659;SDS011;33403;43.608;1.458;2022-08-25T05:06:41;4.25;;;2.67;;
47659;SDS011;33403;43.608;1.458;2022-08-25T05:09:07;6.75;;;2.90;;
47659;SDS011;33403;43.608;1.458;2022-08-25T05:11:33;6.38;;;2.72;;
47659;SDS011;33403;43.608;1.458;2022-08-25T05:14:00;4.18;;;2.70;;
47659;SDS011;33403;43.608;1.458;2022-08-25T05:16:26;6.15;;;2.55;;
47659;SDS011;33403;43.608;1.458;2022-08-25T05:18:53;7.10;;;2.65;;
47659;SDS011;33403;43.608;1.458;2022-08-25T05:21:20;4.28;;;2.78;;
47659;SDS011;33403;43.608;1.458;2022-08-25T05:23:47;6.78;;;3.17;;
47659;SDS011;33403;43.608;1.458;2022-08-25T05:26:18;7.07;;;3.00;;
47659;SDS011;33403;43.608;1.458;2022-08-25T05:28:45;6.05;;;2.80;;
47659;SDS011;33403;43.608;1.458;2022-08-25T05:31:12;9.27;;;3.20;;
47659;SDS011;33403;43.608;1.458;2022-08-25T05:33:39;5.75;;;3.20;;
47659;SDS011;33403;43.608;1.458;2022-08-25T05:36:05;7.60;;;2.90;;
47659;SDS011;33403;43.608;1.458;2022-08-25T05:38:32;7.78;;;3.10;;
47659;SDS011;33403;43.608;1.458;2022-08-25T05:40:59;4.93;;;3.03;;
47659;SDS011;33403;43.608;1.458;2022-08-25T05:43:27;6.65;;;3.40;;
47659;SDS011;33403;43.608;1.458;2022-08-25T05:45:53;8.13;;;3.47;;
47659;SDS011;33403;43.608;1.458;2022-08-25T05:48:20;5.63;;;3.05;;
47659;SDS011;33403;43.608;1.458;2022-08-25T05:50:50;4.80;;;2.90;;
47659;SDS011;33403;43.608;1.458;2022-08-25T05:53:16;6.50;;;3.40;;
47659;SDS011;33403;43.608;1.458;2022-08-25T05:55:43;5.93;;;3.25;;
47659;SDS011;33403;43.608;1.458;2022-08-25T05:58:09;4.95;;;3.50;;
47659;SDS011;33403;43.608;1.458;2022-08-25T06:00:36;7.35;;;3.78;;
47659;SDS011;33403;43.608;1.458;2022-08-25T06:03:02;8.98;;;3.40;;
47659;SDS011;33403;43.608;1.458;2022-08-25T06:05:28;6.68;;;3.70;;
47659;SDS011;33403;43.608;1.458;2022-08-25T06:07:54;5.10;;;3.30;;
47659;SDS011;33403;43.608;1.458;2022-08-25T06:10:21;7.95;;;3.75;;
47659;SDS011;33403;43.608;1.458;2022-08-25T06:12:47;6.47;;;3.85;;
47659;SDS011;33403;43.608;1.458;2022-08-25T06:15:15;7.88;;;3.75;;
47659;SDS011;33403;43.608;1.458;2022-08-25T06:17:42;9.02;;;4.13;;
47659;SDS011;33403;43.608;1.458;2022-08-25T06:20:09;5.90;;;3.53;;
47659;SDS011;33403;43.608;1.458;2022-08-25T06:22:36;6.70;;;3.90;;
47659;SDS011;33403;43.608;1.458;2022-08-25T06:25:05;7.10;;;4.00;;
47659;SDS011;33403;43.608;1.458;2022-08-25T06:27:31;6.30;;;3.88;;
47659;SDS011;33403;43.608;1.458;2022-08-25T06:29:57;6.82;;;4.13;;
47659;SDS011;33403;43.608;1.458;2022-08-25T06:32:23;5.35;;;3.70;;
47659;SDS011;33403;43.608;1.458;2022-08-25T06:34:49;7.35;;;4.15;;
47659;SDS011;33403;43.608;1.458;2022-08-25T06:37:15;6.75;;;3.95;;
47659;SDS011;33403;43.608;1.458;2022-08-25T06:39:41;6.78;;;3.88;;
47659;SDS011;33403;43.608;1.458;2022-08-25T06:42:07;5.85;;;3.97;;
47659;SDS011;33403;43.608;1.458;2022-08-25T06:44:34;7.40;;;4.28;;
47659;SDS011;33403;43.608;1.458;2022-08-25T06:47:00;4.55;;;3.67;;
47659;SDS011;33403;43.608;1.458;2022-08-25T06:49:26;5.93;;;4.15;;
47659;SDS011;33403;43.608;1.458;2022-08-25T06:51:52;7.53;;;4.00;;
47659;SDS011;33403;43.608;1.458;2022-08-25T06:54:18;6.47;;;4.05;;
47659;SDS011;33403;43.608;1.458;2022-08-25T06:56:44;9.05;;;4.28;;
47659;SDS011;33403;43.608;1.458;2022-08-25T06:59:11;5.57;;;4.00;;
47659;SDS011;33403;43.608;1.458;2022-08-25T07:01:37;7.50;;;4.20;;
47659;SDS011;33403;43.608;1.458;2022-08-25T07:04:04;8.55;;;4.47;;
47659;SDS011;33403;43.608;1.458;2022-08-25T07:06:30;6.88;;;4.00;;
47659;SDS011;33403;43.608;1.458;2022-08-25T07:08:59;5.78;;;4.00;;
47659;SDS011;33403;43.608;1.458;2022-08-25T07:11:25;6.35;;;4.13;;
47659;SDS011;33403;43.608;1.458;2022-08-25T07:13:51;6.03;;;4.20;;
47659;SDS011;33403;43.608;1.458;2022-08-25T07:16:18;8.45;;;4.10;;
47659;SDS011;33403;43.608;1.458;2022-08-25T07:18:44;8.70;;;4.38;;
47659;SDS011;33403;43.608;1.458;2022-08-25T07:21:11;8.43;;;4.18;;
47659;SDS011;33403;43.608;1.458;2022-08-25T07:23:38;9.57;;;4.70;;
47659;SDS011;33403;43.608;1.458;2022-08-25T07:28:33;11.13;;;4.35;;
47659;SDS011;33403;43.608;1.458;2022-08-25T07:30:59;10.35;;;4.68;;
47659;SDS011;33403;43.608;1.458;2022-08-25T07:33:25;7.22;;;4.47;;
47659;SDS011;33403;43.608;1.458;2022-08-25T07:35:51;8.65;;;4.55;;
47659;SDS011;33403;43.608;1.458;2022-08-25T07:38:18;6.65;;;4.10;;
47659;SDS011;33403;43.608;1.458;2022-08-25T07:40:44;9.35;;;4.47;;
47659;SDS011;33403;43.608;1.458;2022-08-25T07:43:10;7.10;;;4.65;;
47659;SDS011;33403;43.608;1.458;2022-08-25T07:45:37;8.30;;;4.80;;
47659;SDS011;33403;43.608;1.458;2022-08-25T07:48:05;7.78;;;4.50;;
47659;SDS011;33403;43.608;1.458;2022-08-25T07:50:32;7.63;;;4.70;;
47659;SDS011;33403;43.608;1.458;2022-08-25T07:52:59;6.97;;;4.32;;
47659;SDS011;33403;43.608;1.458;2022-08-25T07:55:25;7.28;;;4.55;;
47659;SDS011;33403;43.608;1.458;2022-08-25T07:57:52;6.63;;;4.18;;
47659;SDS011;33403;43.608;1.458;2022-08-25T08:00:18;5.90;;;4.18;;
47659;SDS011;33403;43.608;1.458;2022-08-25T08:02:45;7.15;;;4.38;;
47659;SDS011;33403;43.608;1.458;2022-08-25T08:05:12;9.73;;;4.88;;
47659;SDS011;33403;43.608;1.458;2022-08-25T08:07:38;6.30;;;4.65;;
47659;SDS011;33403;43.608;1.458;2022-08-25T08:10:05;6.25;;;4.68;;
47659;SDS011;33403;43.608;1.458;2022-08-25T08:12:32;8.50;;;4.95;;
47659;SDS011;33403;43.608;1.458;2022-08-25T08:14:59;7.43;;;4.78;;
47659;SDS011;33403;43.608;1.458;2022-08-25T08:17:25;6.90;;;4.93;;
47659;SDS011;33403;43.608;1.458;2022-08-25T08:19:51;6.53;;;4.63;;
47659;SDS011;33403;43.608;1.458;2022-08-25T08:22:18;7.20;;;4.75;;
47659;SDS011;33403;43.608;1.458;2022-08-25T08:24:44;8.50;;;5.05;;
47659;SDS011;33403;43.608;1.458;2022-08-25T08:27:11;8.38;;;4.80;;
47659;SDS011;33403;43.608;1.458;2022-08-25T08:29:38;7.82;;;5.03;;
47659;SDS011;33403;43.608;1.458;2022-08-25T08:32:05;6.57;;;4.85;;
47659;SDS011;33403;43.608;1.458;2022-08-25T08:34:31;7.15;;;5.25;;
47659;SDS011;33403;43.608;1.458;2022-08-25T08:36:57;8.27;;;5.03;;
47659;SDS011;33403;43.608;1.458;2022-08-25T08:39:27;7.53;;;4.93;;
47659;SDS011;33403;43.608;1.458;2022-08-25T08:49:43;8.27;;;4.70;;
47659;SDS011;33403;43.608;1.458;2022-08-25T08:52:12;7.75;;;5.55;;
47659;SDS011;33403;43.608;1.458;2022-08-25T08:54:39;8.30;;;5.07;;
47659;SDS011;33403;43.608;1.458;2022-08-25T08:57:16;8.75;;;5.05;;
47659;SDS011;33403;43.608;1.458;2022-08-25T08:59:47;6.53;;;4.80;;
47659;SDS011;33403;43.608;1.458;2022-08-25T09:02:27;6.78;;;4.68;;
47659;SDS011;33403;43.608;1.458;2022-08-25T09:04:57;7.63;;;5.00;;
47659;SDS011;33403;43.608;1.458;2022-08-25T09:07:26;6.72;;;4.50;;
47659;SDS011;33403;43.608;1.458;2022-08-25T09:09:54;7.32;;;4.70;;
47659;SDS011;33403;43.608;1.458;2022-08-25T09:12:35;6.90;;;4.78;;
47659;SDS011;33403;43.608;1.458;2022-08-25T09:18:05;8.18;;;5.10;;
47659;SDS011;33403;43.608;1.458;2022-08-25T09:28:38;7.50;;;4.80;;
47659;SDS011;33403;43.608;1.458;2022-08-25T09:31:21;9.18;;;5.10;;
47659;SDS011;33403;43.608;1.458;2022-08-25T09:33:47;8.10;;;4.80;;
47659;SDS011;33403;43.608;1.458;2022-08-25T09:36:13;9.35;;;5.28;;
47659;SDS011;33403;43.608;1.458;2022-08-25T09:38:39;9.10;;;5.03;;
47659;SDS011;33403;43.608;1.458;2022-08-25T09:41:06;8.48;;;5.38;;
47659;SDS011;33403;43.608;1.458;2022-08-25T09:43:34;7.85;;;4.70;;
47659;SDS011;33403;43.608;1.458;2022-08-25T09:53:47;7.60;;;4.72;;
47659;SDS011;33403;43.608;1.458;2022-08-25T09:56:14;5.70;;;4.40;;
47659;SDS011;33403;43.608;1.458;2022-08-25T09:58:43;9.68;;;4.72;;
47659;SDS011;33403;43.608;1.458;2022-08-25T10:01:14;8.35;;;4.70;;
47659;SDS011;33403;43.608;1.458;2022-08-25T10:03:56;9.35;;;4.32;;
47659;SDS011;33403;43.608;1.458;2022-08-25T10:06:23;6.32;;;4.10;;
47659;SDS011;33403;43.608;1.458;2022-08-25T10:08:50;5.93;;;3.67;;
47659;SDS011;33403;43.608;1.458;2022-08-25T10:14:03;6.88;;;3.30;;
47659;SDS011;33403;43.608;1.458;2022-08-25T10:16:30;5.07;;;3.40;;
47659;SDS011;33403;43.608;1.458;2022-08-25T10:19:10;6.63;;;3.60;;
47659;SDS011;33403;43.608;1.458;2022-08-25T10:21:37;6.50;;;3.40;;
47659;SDS011;33403;43.608;1.458;2022-08-25T10:24:04;6.55;;;3.65;;
47659;SDS011;33403;43.608;1.458;2022-08-25T10:34:58;7.72;;;4.05;;
47659;SDS011;33403;43.608;1.458;2022-08-25T10:50:49;9.05;;;4.32;;
47659;SDS011;33403;43.608;1.458;2022-08-25T10:55:53;5.97;;;3.75;;
47659;SDS011;33403;43.608;1.458;2022-08-25T10:58:24;9.23;;;4.13;;
47659;SDS011;33403;43.608;1.458;2022-08-25T11:01:54;9.60;;;3.95;;
47659;SDS011;33403;43.608;1.458;2022-08-25T11:03:54;7.63;;;3.67;;
47659;SDS011;33403;43.608;1.458;2022-08-25T11:06:28;9.40;;;3.85;;
47659;SDS011;33403;43.608;1.458;2022-08-25T11:09:01;8.32;;;4.15;;
47659;SDS011;33403;43.608;1.458;2022-08-25T11:11:48;8.60;;;4.18;;
47659;SDS011;33403;43.608;1.458;2022-08-25T11:14:21;8.55;;;3.97;;
47659;SDS011;33403;43.608;1.458;2022-08-25T11:16:57;8.18;;;3.70;;
47659;SDS011;33403;43.608;1.458;2022-08-25T11:19:25;7.72;;;4.05;;
47659;SDS011;33403;43.608;1.458;2022-08-25T11:27:20;6.35;;;4.05;;
47659;SDS011;33403;43.608;1.458;2022-08-25T11:30:08;7.40;;;3.80;;
47659;SDS011;33403;43.608;1.458;2022-08-25T11:32:33;8.68;;;3.88;;
47659;SDS011;33403;43.608;1.458;2022-08-25T11:35:01;7.32;;;3.70;;
47659;SDS011;33403;43.608;1.458;2022-08-25T11:37:28;7.20;;;3.70;;
47659;SDS011;33403;43.608;1.458;2022-08-25T11:40:06;6.97;;;3.20;;
47659;SDS011;33403;43.608;1.458;2022-08-25T11:42:43;5.47;;;3.15;;
47659;SDS011;33403;43.608;1.458;2022-08-25T12:00:46;5.20;;;3.42;;
47659;SDS011;33403;43.608;1.458;2022-08-25T12:08:50;6.63;;;3.42;;
47659;SDS011;33403;43.608;1.458;2022-08-25T12:14:14;8.45;;;3.60;;
47659;SDS011;33403;43.608;1.458;2022-08-25T12:16:41;5.38;;;2.95;;
47659;SDS011;33403;43.608;1.458;2022-08-25T12:19:21;6.35;;;3.00;;
47659;SDS011;33403;43.608;1.458;2022-08-25T12:21:48;8.02;;;3.35;;
47659;SDS011;33403;43.608;1.458;2022-08-25T12:24:15;6.45;;;3.60;;
47659;SDS011;33403;43.608;1.458;2022-08-25T12:26:48;5.95;;;3.03;;
47659;SDS011;33403;43.608;1.458;2022-08-25T12:31:57;6.88;;;3.17;;
47659;SDS011;33403;43.608;1.458;2022-08-25T12:37:13;5.78;;;3.03;;
47659;SDS011;33403;43.608;1.458;2022-08-25T12:42:24;6.78;;;3.00;;
47659;SDS011;33403;43.608;1.458;2022-08-25T12:47:43;4.28;;;2.72;;
47659;SDS011;33403;43.608;1.458;2022-08-25T12:52:59;8.98;;;2.95;;
47659;SDS011;33403;43.608;1.458;2022-08-25T12:55:28;5.28;;;2.80;;
47659;SDS011;33403;43.608;1.458;2022-08-25T12:57:54;6.50;;;2.78;;
47659;SDS011;33403;43.608;1.458;2022-08-25T13:00:26;7.97;;;3.05;;
47659;SDS011;33403;43.608;1.458;2022-08-25T13:08:28;6.13;;;2.75;;
47659;SDS011;33403;43.608;1.458;2022-08-25T13:11:08;5.10;;;2.72;;
47659;SDS011;33403;43.608;1.458;2022-08-25T13:13:44;4.35;;;2.72;;
47659;SDS011;33403;43.608;1.458;2022-08-25T13:16:19;6.50;;;2.65;;
47659;SDS011;33403;43.608;1.458;2022-08-25T13:18:45;5.40;;;2.90;;
47659;SDS011;33403;43.608;1.458;2022-08-25T13:21:19;4.20;;;2.50;;
47659;SDS011;33403;43.608;1.458;2022-08-25T13:23:48;8.02;;;2.50;;
47659;SDS011;33403;43.608;1.458;2022-08-25T13:26:16;7.25;;;3.13;;
47659;SDS011;33403;43.608;1.458;2022-08-25T13:28:49;4.55;;;2.30;;
47659;SDS011;33403;43.608;1.458;2022-08-25T13:31:19;5.35;;;2.55;;
47659;SDS011;33403;43.608;1.458;2022-08-25T13:33:59;6.45;;;2.90;;
47659;SDS011;33403;43.608;1.458;2022-08-25T13:36:30;4.05;;;2.65;;
47659;SDS011;33403;43.608;1.458;2022-08-25T13:39:19;5.85;;;2.85;;
47659;SDS011;33403;43.608;1.458;2022-08-25T13:41:46;8.30;;;3.03;;
47659;SDS011;33403;43.608;1.458;2022-08-25T13:44:13;6.38;;;2.70;;
47659;SDS011;33403;43.608;1.458;2022-08-25T13:46:40;7.43;;;2.90;;
47659;SDS011;33403;43.608;1.458;2022-08-25T13:49:07;4.72;;;2.55;;
47659;SDS011;33403;43.608;1.458;2022-08-25T13:51:34;4.40;;;2.53;;
47659;SDS011;33403;43.608;1.458;2022-08-25T13:54:03;7.32;;;3.00;;
47659;SDS011;33403;43.608;1.458;2022-08-25T13:56:36;5.53;;;2.65;;
47659;SDS011;33403;43.608;1.458;2022-08-25T13:59:04;6.60;;;2.70;;
47659;SDS011;33403;43.608;1.458;2022-08-25T14:01:34;5.90;;;2.83;;
47659;SDS011;33403;43.608;1.458;2022-08-25T14:07:07;7.43;;;2.83;;
47659;SDS011;33403;43.608;1.458;2022-08-25T14:09:37;5.50;;;2.78;;
47659;SDS011;33403;43.608;1.458;2022-08-25T14:12:04;7.93;;;3.05;;
47659;SDS011;33403;43.608;1.458;2022-08-25T14:14:31;7.80;;;2.92;;
47659;SDS011;33403;43.608;1.458;2022-08-25T14:17:03;4.85;;;2.40;;
47659;SDS011;33403;43.608;1.458;2022-08-25T14:19:30;7.10;;;2.72;;
47659;SDS011;33403;43.608;1.458;2022-08-25T14:21:57;6.50;;;2.70;;
47659;SDS011;33403;43.608;1.458;2022-08-25T14:24:26;6.65;;;3.20;;
47659;SDS011;33403;43.608;1.458;2022-08-25T14:26:52;4.63;;;2.90;;
47659;SDS011;33403;43.608;1.458;2022-08-25T14:29:18;7.57;;;2.72;;
47659;SDS011;33403;43.608;1.458;2022-08-25T14:31:45;4.78;;;2.60;;
47659;SDS011;33403;43.608;1.458;2022-08-25T14:34:12;8.60;;;3.03;;
47659;SDS011;33403;43.608;1.458;2022-08-25T14:36:40;8.57;;;3.10;;
47659;SDS011;33403;43.608;1.458;2022-08-25T14:39:06;6.93;;;2.90;;
47659;SDS011;33403;43.608;1.458;2022-08-25T14:41:33;6.35;;;3.22;;
47659;SDS011;33403;43.608;1.458;2022-08-25T14:44:01;5.82;;;2.80;;
47659;SDS011;33403;43.608;1.458;2022-08-25T14:46:27;6.28;;;2.85;;
47659;SDS011;33403;43.608;1.458;2022-08-25T14:48:55;6.38;;;2.63;;
47659;SDS011;33403;43.608;1.458;2022-08-25T14:51:23;5.82;;;2.90;;
47659;SDS011;33403;43.608;1.458;2022-08-25T14:53:50;6.53;;;3.40;;
47659;SDS011;33403;43.608;1.458;2022-08-25T14:56:17;5.03;;;2.90;;
47659;SDS011;33403;43.608;1.458;2022-08-25T14:58:43;3.97;;;3.00;;
47659;SDS011;33403;43.608;1.458;2022-08-25T15:01:12;4.88;;;3.35;;
47659;SDS011;33403;43.608;1.458;2022-08-25T15:03:39;5.80;;;3.20;;
47659;SDS011;33403;43.608;1.458;2022-08-25T15:06:07;5.25;;;3.30;;
47659;SDS011;33403;43.608;1.458;2022-08-25T15:08:35;4.55;;;3.20;;
47659;SDS011;33403;43.608;1.458;2022-08-25T15:11:20;5.82;;;3.38;;
47659;SDS011;33403;43.608;1.458;2022-08-25T15:13:46;4.70;;;3.55;;
47659;SDS011;33403;43.608;1.458;2022-08-25T15:16:14;8.13;;;3.40;;
47659;SDS011;33403;43.608;1.458;2022-08-25T15:18:42;5.93;;;3.80;;
47659;SDS011;33403;43.608;1.458;2022-08-25T15:21:08;5.22;;;3.15;;
47659;SDS011;33403;43.608;1.458;2022-08-25T15:23:34;4.97;;;3.20;;
47659;SDS011;33403;43.608;1.458;2022-08-25T15:26:00;3.85;;;3.28;;
47659;SDS011;33403;43.608;1.458;2022-08-25T15:28:26;4.25;;;3.15;;
47659;SDS011;33403;43.608;1.458;2022-08-25T15:30:52;5.85;;;3.17;;
47659;SDS011;33403;43.608;1.458;2022-08-25T15:33:18;6.28;;;3.40;;
47659;SDS011;33403;43.608;1.458;2022-08-25T15:35:44;4.15;;;3.17;;
47659;SDS011;33403;43.608;1.458;2022-08-25T15:38:10;4.47;;;3.05;;
47659;SDS011;33403;43.608;1.458;2022-08-25T15:40:36;4.07;;;3.17;;
47659;SDS011;33403;43.608;1.458;2022-08-25T15:43:04;4.75;;;3.08;;
47659;SDS011;33403;43.608;1.458;2022-08-25T15:45:30;5.43;;;2.90;;
47659;SDS011;33403;43.608;1.458;2022-08-25T15:47:56;5.40;;;2.78;;
47659;SDS011;33403;43.608;1.458;2022-08-25T15:50:22;3.55;;;2.80;;
47659;SDS011;33403;43.608;1.458;2022-08-25T15:52:50;5.10;;;3.00;;
47659;SDS011;33403;43.608;1.458;2022-08-25T15:55:16;5.65;;;3.05;;
47659;SDS011;33403;43.608;1.458;2022-08-25T15:57:42;4.07;;;2.60;;
47659;SDS011;33403;43.608;1.458;2022-08-25T16:00:09;4.25;;;2.55;;
47659;SDS011;33403;43.608;1.458;2022-08-25T16:02:36;3.83;;;2.40;;
47659;SDS011;33403;43.608;1.458;2022-08-25T16:05:03;5.03;;;2.40;;
47659;SDS011;33403;43.608;1.458;2022-08-25T16:07:30;2.97;;;2.30;;
47659;SDS011;33403;43.608;1.458;2022-08-25T16:09:56;3.13;;;2.30;;
47659;SDS011;33403;43.608;1.458;2022-08-25T16:12:23;3.53;;;2.35;;
47659;SDS011;33403;43.608;1.458;2022-08-25T16:14:49;3.55;;;2.00;;
47659;SDS011;33403;43.608;1.458;2022-08-25T16:17:16;4.13;;;2.20;;
47659;SDS011;33403;43.608;1.458;2022-08-25T16:19:43;2.85;;;2.20;;
47659;SDS011;33403;43.608;1.458;2022-08-25T16:22:09;4.97;;;2.30;;
47659;SDS011;33403;43.608;1.458;2022-08-25T16:24:37;3.72;;;2.40;;
47659;SDS011;33403;43.608;1.458;2022-08-25T16:27:04;3.80;;;2.30;;
47659;SDS011;33403;43.608;1.458;2022-08-25T16:29:30;4.43;;;2.20;;
47659;SDS011;33403;43.608;1.458;2022-08-25T16:31:57;3.47;;;1.90;;
47659;SDS011;33403;43.608;1.458;2022-08-25T16:34:23;2.10;;;1.73;;
47659;SDS011;33403;43.608;1.458;2022-08-25T16:36:49;2.85;;;1.83;;
47659;SDS011;33403;43.608;1.458;2022-08-25T16:39:16;3.80;;;1.90;;
47659;SDS011;33403;43.608;1.458;2022-08-25T16:41:42;2.65;;;1.98;;
47659;SDS011;33403;43.608;1.458;2022-08-25T16:44:08;2.53;;;1.70;;
47659;SDS011;33403;43.608;1.458;2022-08-25T16:46:34;3.03;;;1.80;;